createdAt,value
2023-07-27T00:00:46.311Z,114.53
2023-07-27T00:03:14.236Z,113.70
2023-07-27T00:05:42.244Z,113.87
2023-07-27T00:08:11.479Z,112.47
2023-07-27T00:10:39.415Z,111.87
2023-07-27T00:13:07.282Z,110.03
2023-07-27T00:15:35.182Z,110.27
2023-07-27T00:18:03.148Z,111.57
2023-07-27T00:20:31.033Z,109.57
2023-07-27T00:22:58.973Z,108.03
2023-07-27T00:25:28.141Z,109.07
2023-07-27T00:27:56.122Z,107.33
2023-07-27T00:30:24.018Z,107.63
2023-07-27T00:32:51.878Z,106.53
2023-07-27T00:35:19.852Z,105.73
2023-07-27T00:37:47.741Z,105.83
2023-07-27T00:40:15.549Z,104.50
2023-07-27T00:42:44.957Z,103.67
2023-07-27T00:45:12.877Z,104.27
2023-07-27T00:47:41.232Z,104.07
2023-07-27T00:50:09.494Z,102.90
2023-07-27T00:52:37.306Z,103.20
2023-07-27T00:55:05.464Z,103.70
2023-07-27T00:57:33.414Z,105.03
2023-07-27T01:00:02.692Z,105.23
2023-07-27T01:02:30.572Z,106.17
2023-07-27T01:04:58.684Z,106.87
2023-07-27T01:07:26.630Z,106.47
2023-07-27T01:09:54.483Z,106.17
2023-07-27T01:12:26.424Z,106.20
2023-07-27T01:14:56.403Z,106.97
2023-07-27T01:17:30.730Z,106.30
2023-07-27T01:20:16.265Z,108.37
2023-07-27T01:23:05.607Z,109.13
2023-07-27T01:25:42.377Z,109.83
2023-07-27T01:28:15.496Z,109.40
2023-07-27T01:30:50.949Z,110.67
2023-07-27T01:33:23.266Z,110.07
2023-07-27T01:35:55.459Z,111.20
2023-07-27T01:38:24.709Z,111.63
2023-07-27T01:40:54.628Z,112.60
2023-07-27T01:43:23.338Z,112.63
2023-07-27T01:45:53.876Z,112.87
2023-07-27T01:48:23.566Z,113.70
2023-07-27T01:50:52.466Z,112.87
2023-07-27T01:53:21.805Z,113.43
2023-07-27T01:55:50.986Z,112.63
2023-07-27T01:58:18.869Z,111.70
2023-07-27T02:00:46.822Z,112.00
2023-07-27T02:03:16.187Z,110.80
2023-07-27T02:05:44.115Z,111.23
2023-07-27T02:08:12.061Z,111.23
2023-07-27T02:10:41.869Z,110.07
2023-07-27T02:13:13.713Z,110.60
2023-07-27T02:15:44.525Z,110.07
2023-07-27T02:18:17.295Z,110.10
2023-07-27T02:20:46.915Z,112.87
2023-07-27T02:23:15.480Z,110.37
2023-07-27T02:25:43.776Z,111.57
2023-07-27T02:28:12.150Z,111.97
2023-07-27T02:30:40.283Z,111.53
2023-07-27T02:33:08.131Z,109.90
2023-07-27T02:35:36.088Z,110.37
2023-07-27T02:38:05.650Z,109.03
2023-07-27T02:40:34.948Z,109.03
2023-07-27T02:43:03.526Z,108.73
2023-07-27T02:45:31.405Z,107.57
2023-07-27T02:47:59.377Z,108.60
2023-07-27T02:50:27.250Z,107.87
2023-07-27T02:53:01.455Z,110.00
2023-07-27T02:55:30.992Z,108.70
2023-07-27T02:58:01.674Z,107.63
2023-07-27T03:00:33.779Z,107.93
2023-07-27T03:03:02.497Z,109.13
2023-07-27T03:05:30.877Z,108.93
2023-07-27T03:07:58.734Z,109.87
2023-07-27T03:10:36.032Z,111.60
2023-07-27T03:13:05.881Z,111.37
2023-07-27T03:15:34.015Z,111.53
2023-07-27T03:18:01.928Z,112.63
2023-07-27T03:20:29.920Z,111.63
2023-07-27T03:22:57.758Z,112.47
2023-07-27T03:25:25.773Z,112.33
2023-07-27T03:27:55.526Z,111.43
2023-07-27T03:30:23.462Z,111.33
2023-07-27T03:32:51.423Z,110.83
2023-07-27T03:35:19.599Z,111.03
2023-07-27T03:37:47.384Z,109.03
2023-07-27T03:40:15.421Z,108.53
2023-07-27T03:42:43.754Z,108.47
2023-07-27T03:45:16.560Z,107.77
2023-07-27T03:47:46.636Z,107.97
2023-07-27T03:50:15.158Z,108.10
2023-07-27T03:52:44.278Z,107.57
2023-07-27T03:55:14.330Z,108.80
2023-07-27T03:57:42.499Z,108.17
2023-07-27T04:00:12.584Z,108.67
2023-07-27T04:02:44.852Z,107.67
2023-07-27T04:05:12.866Z,105.07
2023-07-27T04:07:40.761Z,105.67
2023-07-27T04:10:08.729Z,103.93
2023-07-27T04:12:36.725Z,103.50
2023-07-27T04:15:04.592Z,103.90
2023-07-27T04:17:32.720Z,104.67
2023-07-27T04:20:02.076Z,104.37
2023-07-27T04:22:30.183Z,103.70
2023-07-27T04:24:58.101Z,102.83
2023-07-27T04:27:26.062Z,102.87
2023-07-27T04:29:54.042Z,102.40
2023-07-27T04:32:21.997Z,102.77
2023-07-27T04:34:49.842Z,100.60
2023-07-27T04:37:19.098Z,100.67
2023-07-27T04:39:47.102Z,100.57
2023-07-27T04:42:14.979Z,100.03
2023-07-27T04:44:42.869Z,98.43
2023-07-27T04:47:10.672Z,98.50
2023-07-27T04:49:39.822Z,99.60
2023-07-27T04:52:08.243Z,99.07
2023-07-27T04:54:37.449Z,100.00
2023-07-27T04:57:05.533Z,98.40
2023-07-27T04:59:33.481Z,94.93
2023-07-27T05:02:01.501Z,95.83
2023-07-27T05:04:29.447Z,94.27
2023-07-27T05:06:57.412Z,92.73
2023-07-27T05:09:25.191Z,93.03
2023-07-27T05:11:54.505Z,90.97
2023-07-27T05:14:22.449Z,90.30
2023-07-27T05:16:50.307Z,87.97
2023-07-27T05:19:18.200Z,86.23
2023-07-27T05:21:46.090Z,85.60
2023-07-27T05:24:14.038Z,85.20
2023-07-27T05:26:43.122Z,85.33
2023-07-27T05:29:12.450Z,86.03
2023-07-27T05:31:41.293Z,85.43
2023-07-27T05:34:09.877Z,85.30
2023-07-27T05:36:38.002Z,83.83
2023-07-27T05:39:05.948Z,81.80
2023-07-27T05:41:34.249Z,82.30
2023-07-27T05:44:02.121Z,80.43
2023-07-27T05:46:32.247Z,75.90
2023-07-27T05:49:00.469Z,73.37
2023-07-27T05:51:28.368Z,72.47
2023-07-27T05:53:56.338Z,72.87
2023-07-27T05:56:24.456Z,70.63
2023-07-27T05:58:52.304Z,69.37
2023-07-27T06:01:20.113Z,69.90
2023-07-27T06:04:05.219Z,71.37
2023-07-27T06:06:35.144Z,70.73
2023-07-27T06:09:04.283Z,72.97
2023-07-27T06:11:32.521Z,74.70
2023-07-27T06:14:00.362Z,73.20
2023-07-27T06:16:28.353Z,70.40
2023-07-27T06:18:58.288Z,68.80
2023-07-27T06:21:26.260Z,66.47
2023-07-27T06:23:54.124Z,65.60
2023-07-27T06:26:22.258Z,65.03
2023-07-27T06:28:50.160Z,63.10
2023-07-27T06:31:18.396Z,59.70
2023-07-27T06:33:48.004Z,57.07
2023-07-27T06:36:18.664Z,57.67
2023-07-27T06:38:46.534Z,56.47
2023-07-27T06:41:14.409Z,55.47
2023-07-27T06:43:42.222Z,52.67
2023-07-27T06:46:10.141Z,52.70
2023-07-27T06:48:38.071Z,52.77
2023-07-27T06:51:06.019Z,48.37
2023-07-27T06:53:35.218Z,45.53
2023-07-27T06:56:03.182Z,45.03
2023-07-27T06:58:31.110Z,41.70
2023-07-27T07:00:59.646Z,39.37
2023-07-27T07:03:27.672Z,37.77
2023-07-27T07:05:55.923Z,38.40
2023-07-27T07:08:23.705Z,35.87
2023-07-27T07:10:52.933Z,35.60
2023-07-27T07:13:20.686Z,34.27
2023-07-27T07:15:49.734Z,31.30
2023-07-27T07:18:17.636Z,30.45
2023-07-27T07:20:48.381Z,29.83
2023-07-27T07:23:17.710Z,30.95
2023-07-27T07:25:45.907Z,30.88
2023-07-27T07:28:15.148Z,28.05
2023-07-27T07:30:43.215Z,27.83
2023-07-27T07:33:11.198Z,25.15
2023-07-27T07:35:40.981Z,24.17
2023-07-27T07:38:09.033Z,22.13
2023-07-27T07:40:36.916Z,19.20
2023-07-27T07:43:04.834Z,21.42
2023-07-27T07:45:36.777Z,19.73
2023-07-27T07:48:05.051Z,17.98
2023-07-27T07:50:34.303Z,15.93
2023-07-27T07:53:02.307Z,14.35
2023-07-27T07:55:30.149Z,12.68
2023-07-27T07:57:58.094Z,12.88
2023-07-27T08:00:26.339Z,13.02
2023-07-27T08:02:55.856Z,13.15
2023-07-27T08:05:24.152Z,12.00
2023-07-27T08:07:52.002Z,12.27
2023-07-27T08:10:19.947Z,11.95
2023-07-27T08:12:50.673Z,10.40
2023-07-27T08:15:18.806Z,9.02
2023-07-27T08:17:46.736Z,8.23
2023-07-27T08:20:16.168Z,8.20
2023-07-27T08:22:44.004Z,7.60
2023-07-27T08:25:21.386Z,7.47
2023-07-27T08:27:50.305Z,8.20
2023-07-27T08:30:18.256Z,7.43
2023-07-27T08:32:48.396Z,7.45
2023-07-27T08:35:17.974Z,6.82
2023-07-27T08:37:45.889Z,5.75
2023-07-27T08:40:14.034Z,5.70
2023-07-27T08:42:42.186Z,5.30
2023-07-27T08:45:10.529Z,5.38
2023-07-27T08:47:38.654Z,5.88
2023-07-27T08:50:07.562Z,5.65
2023-07-27T08:52:37.087Z,5.00
2023-07-27T08:55:05.148Z,4.90
2023-07-27T08:57:33.083Z,4.20
2023-07-27T09:00:00.953Z,4.78
2023-07-27T09:02:28.796Z,3.92
2023-07-27T09:04:57.420Z,4.22
2023-07-27T09:07:25.354Z,4.00
2023-07-27T09:09:55.171Z,4.88
2023-07-27T09:12:24.728Z,4.45
2023-07-27T09:14:52.661Z,4.40
2023-07-27T09:17:20.848Z,4.35
2023-07-27T09:19:48.913Z,4.70
2023-07-27T09:22:16.801Z,5.32
2023-07-27T09:24:44.952Z,4.88
2023-07-27T09:27:16.636Z,4.70
2023-07-27T09:29:45.129Z,4.10
2023-07-27T09:32:13.242Z,4.20
2023-07-27T09:34:41.247Z,4.55
2023-07-27T09:37:09.564Z,4.25
2023-07-27T09:39:44.484Z,5.47
2023-07-27T09:42:16.988Z,4.25
2023-07-27T09:44:49.413Z,3.72
2023-07-27T09:47:19.917Z,4.20
2023-07-27T09:49:48.442Z,3.55
2023-07-27T09:52:16.419Z,3.67
2023-07-27T09:54:46.218Z,3.60
2023-07-27T09:57:16.020Z,3.63
2023-07-27T09:59:44.235Z,3.75
2023-07-27T10:02:12.161Z,3.75
2023-07-27T10:04:40.139Z,4.82
2023-07-27T10:07:08.221Z,3.35
2023-07-27T10:09:36.183Z,3.90
2023-07-27T10:12:05.625Z,4.32
2023-07-27T10:14:34.868Z,3.90
2023-07-27T10:17:04.100Z,4.10
2023-07-27T10:19:45.001Z,3.63
2023-07-27T10:22:16.729Z,4.40
2023-07-27T10:24:48.676Z,4.15
2023-07-27T10:27:17.749Z,3.95
2023-07-27T10:29:50.277Z,4.63
2023-07-27T10:32:18.319Z,3.85
2023-07-27T10:34:51.148Z,3.97
2023-07-27T10:37:19.119Z,3.42
2023-07-27T10:39:48.699Z,3.97
2023-07-27T10:42:18.327Z,3.65
2023-07-27T10:44:47.950Z,3.58
2023-07-27T10:47:17.724Z,4.95
2023-07-27T10:49:46.082Z,3.58
2023-07-27T10:52:15.996Z,4.43
2023-07-27T10:54:44.697Z,4.25
2023-07-27T10:57:13.090Z,4.03
2023-07-27T10:59:42.125Z,4.32
2023-07-27T11:02:14.480Z,3.97
2023-07-27T11:04:44.055Z,4.13
2023-07-27T11:07:12.711Z,3.97
2023-07-27T11:09:45.883Z,4.15
2023-07-27T11:12:13.837Z,3.63
2023-07-27T11:14:41.767Z,4.00
2023-07-27T11:17:09.648Z,3.78
2023-07-27T11:19:37.569Z,3.95
2023-07-27T11:22:07.055Z,3.90
2023-07-27T11:24:35.677Z,3.90
2023-07-27T11:27:03.974Z,3.83
2023-07-27T11:29:33.630Z,4.00
2023-07-27T11:32:01.994Z,3.65
2023-07-27T11:34:30.925Z,3.72
2023-07-27T11:37:00.557Z,3.80
2023-07-27T11:39:29.796Z,3.90
2023-07-27T11:41:57.814Z,4.00
2023-07-27T11:44:25.801Z,3.58
2023-07-27T11:46:56.647Z,3.83
2023-07-27T11:49:25.040Z,3.80
2023-07-27T11:51:52.868Z,4.10
2023-07-27T11:54:24.681Z,3.60
2023-07-27T11:56:54.507Z,4.00
2023-07-27T11:59:23.037Z,3.85
2023-07-27T12:01:51.678Z,4.40
2023-07-27T12:04:20.153Z,4.25
2023-07-27T12:06:49.043Z,4.05
2023-07-27T12:09:17.014Z,3.60
2023-07-27T12:11:45.934Z,4.93
2023-07-27T12:14:15.158Z,3.63
2023-07-27T12:21:48.619Z,4.05
2023-07-27T12:34:24.938Z,3.40
2023-07-27T12:39:24.370Z,3.67
2023-07-27T12:44:24.444Z,3.80
2023-07-27T12:46:52.243Z,4.07
2023-07-27T12:49:20.134Z,3.97
2023-07-27T12:51:48.043Z,3.60
2023-07-27T12:54:15.922Z,3.80
2023-07-27T12:56:43.761Z,3.38
2023-07-27T12:59:11.625Z,3.90
2023-07-27T13:01:41.148Z,4.82
2023-07-27T13:04:09.212Z,3.70
2023-07-27T13:06:37.090Z,4.10
2023-07-27T13:09:06.376Z,3.83
2023-07-27T13:11:34.674Z,3.75
2023-07-27T13:14:03.180Z,3.50
2023-07-27T13:16:31.165Z,3.95
2023-07-27T13:19:00.401Z,4.05
2023-07-27T13:21:28.237Z,4.10
2023-07-27T13:23:56.100Z,4.45
2023-07-27T13:26:24.069Z,4.30
2023-07-27T13:28:51.949Z,3.90
2023-07-27T13:31:24.076Z,3.50
2023-07-27T13:33:51.987Z,4.00
2023-07-27T13:36:21.489Z,4.15
2023-07-27T13:38:49.353Z,4.05
2023-07-27T13:41:17.118Z,4.25
2023-07-27T13:43:44.975Z,4.05
2023-07-27T13:46:12.892Z,3.63
2023-07-27T13:48:40.849Z,4.43
2023-07-27T13:51:09.913Z,4.07
2023-07-27T13:53:39.275Z,4.50
2023-07-27T13:56:07.580Z,4.00
2023-07-27T13:58:35.395Z,4.30
2023-07-27T14:01:03.354Z,4.18
2023-07-27T14:03:31.435Z,4.25
2023-07-27T14:05:59.376Z,3.83
2023-07-27T14:08:27.142Z,3.70
2023-07-27T14:10:56.436Z,3.88
2023-07-27T14:13:24.225Z,3.67
2023-07-27T14:15:52.303Z,4.45
2023-07-27T14:18:20.233Z,4.47
2023-07-27T14:20:48.145Z,3.42
2023-07-27T14:23:16.012Z,4.10
2023-07-27T14:25:44.641Z,5.05
2023-07-27T14:28:14.075Z,3.60
2023-07-27T14:30:42.111Z,5.43
2023-07-27T14:33:09.981Z,4.38
2023-07-27T14:35:37.918Z,3.92
2023-07-27T14:38:05.827Z,4.72
2023-07-27T14:43:04.665Z,3.50
2023-07-27T14:45:36.335Z,4.00
2023-07-27T14:48:04.344Z,3.60
2023-07-27T14:53:03.054Z,4.15
2023-07-27T14:55:31.060Z,4.20
2023-07-27T14:57:59.456Z,3.53
2023-07-27T15:00:35.733Z,4.55
2023-07-27T15:03:06.019Z,4.32
2023-07-27T15:05:34.402Z,4.95
2023-07-27T15:08:02.376Z,4.10
2023-07-27T15:10:32.506Z,4.40
2023-07-27T15:13:01.205Z,3.92
2023-07-27T15:15:29.288Z,3.97
2023-07-27T15:17:57.309Z,3.63
2023-07-27T15:20:26.958Z,4.22
2023-07-27T15:22:55.055Z,3.95
2023-07-27T15:25:22.942Z,4.07
2023-07-27T15:27:51.008Z,4.57
2023-07-27T15:30:18.946Z,3.72
2023-07-27T15:32:46.924Z,4.50
2023-07-27T15:35:14.920Z,4.13
2023-07-27T15:37:44.215Z,3.50
2023-07-27T15:40:12.326Z,4.72
2023-07-27T15:42:40.267Z,3.70
2023-07-27T15:45:08.754Z,4.20
2023-07-27T15:47:36.653Z,4.03
2023-07-27T15:50:05.067Z,4.60
2023-07-27T15:52:33.113Z,4.35
2023-07-27T15:55:02.473Z,4.22
2023-07-27T15:57:30.412Z,4.82
2023-07-27T16:00:01.321Z,4.50
2023-07-27T16:02:29.476Z,4.25
2023-07-27T16:04:57.754Z,4.40
2023-07-27T16:07:25.810Z,4.85
2023-07-27T16:09:57.383Z,4.60
2023-07-27T16:12:28.356Z,4.32
2023-07-27T16:14:57.135Z,4.90
2023-07-27T16:17:25.632Z,3.80
2023-07-27T16:19:53.543Z,3.35
2023-07-27T16:22:23.512Z,3.40
2023-07-27T16:24:51.789Z,3.00
2023-07-27T16:27:20.179Z,3.50
2023-07-27T16:29:49.677Z,4.10
2023-07-27T16:32:17.532Z,4.20
2023-07-27T16:34:45.484Z,4.22
2023-07-27T16:37:13.280Z,3.30
2023-07-27T16:39:41.244Z,3.80
2023-07-27T16:42:09.103Z,3.67
2023-07-27T16:44:37.157Z,3.30
2023-07-27T16:47:06.407Z,3.63
2023-07-27T16:49:34.659Z,3.22
2023-07-27T16:52:02.548Z,3.40
2023-07-27T16:54:30.544Z,4.55
2023-07-27T16:56:58.525Z,4.22
2023-07-27T16:59:26.945Z,3.58
2023-07-27T17:01:54.883Z,3.55
2023-07-27T17:04:24.146Z,5.60
2023-07-27T17:06:51.997Z,3.30
2023-07-27T17:09:19.945Z,3.33
2023-07-27T17:11:47.807Z,3.45
2023-07-27T17:14:15.850Z,3.90
2023-07-27T17:16:43.736Z,3.40
2023-07-27T17:19:11.728Z,3.75
2023-07-27T17:21:41.212Z,3.53
2023-07-27T17:24:09.897Z,3.92
2023-07-27T17:26:37.689Z,4.00
2023-07-27T17:29:05.640Z,3.78
2023-07-27T17:31:34.165Z,3.90
2023-07-27T17:34:02.836Z,4.05
2023-07-27T17:36:30.765Z,3.42
2023-07-27T17:39:00.169Z,3.83
2023-07-27T17:41:28.120Z,4.05
2023-07-27T17:43:56.091Z,3.92
2023-07-27T17:46:24.294Z,3.60
2023-07-27T17:48:52.157Z,3.95
2023-07-27T17:51:20.096Z,4.22
2023-07-27T17:53:48.005Z,4.05
2023-07-27T17:56:17.206Z,4.00
2023-07-27T17:58:45.020Z,5.55
2023-07-27T18:01:12.943Z,4.00
2023-07-27T18:03:40.961Z,3.78
2023-07-27T18:06:09.545Z,3.90
2023-07-27T18:08:37.392Z,5.35
2023-07-27T18:11:11.859Z,4.38
2023-07-27T18:13:42.395Z,4.68
2023-07-27T18:16:10.812Z,4.88
2023-07-27T18:18:38.829Z,4.65
2023-07-27T18:21:10.469Z,4.30
2023-07-27T18:23:38.719Z,4.30
2023-07-27T18:26:06.756Z,5.00
2023-07-27T18:28:34.712Z,4.47
2023-07-27T18:31:06.483Z,4.63
2023-07-27T18:33:34.499Z,4.55
2023-07-27T18:36:10.750Z,4.55
2023-07-27T18:38:40.416Z,5.53
2023-07-27T18:41:08.393Z,4.63
2023-07-27T18:43:37.249Z,4.55
2023-07-27T18:46:06.593Z,5.47
2023-07-27T18:48:34.621Z,5.05
2023-07-27T18:51:03.969Z,6.82
2023-07-27T18:53:35.393Z,4.68
2023-07-27T18:56:03.934Z,4.32
2023-07-27T18:58:32.114Z,4.85
2023-07-27T19:01:00.195Z,4.22
2023-07-27T19:03:29.484Z,4.95
2023-07-27T19:05:59.216Z,4.30
2023-07-27T19:08:27.167Z,4.65
2023-07-27T19:10:55.048Z,4.65
2023-07-27T19:13:22.868Z,4.95
2023-07-27T19:15:51.520Z,4.90
2023-07-27T19:18:19.461Z,5.22
2023-07-27T19:20:48.820Z,6.07
2023-07-27T19:23:16.716Z,5.13
2023-07-27T19:25:45.255Z,5.38
2023-07-27T19:28:13.182Z,5.95
2023-07-27T19:30:41.652Z,5.30
2023-07-27T19:33:10.246Z,5.68
2023-07-27T19:35:38.568Z,5.30
2023-07-27T19:38:08.481Z,5.53
2023-07-27T19:40:36.398Z,5.90
2023-07-27T19:43:04.510Z,5.57
2023-07-27T19:45:32.611Z,5.25
2023-07-27T19:48:00.532Z,5.50
2023-07-27T19:50:28.579Z,6.53
2023-07-27T19:52:56.408Z,6.43
2023-07-27T19:55:25.723Z,5.60
2023-07-27T19:57:53.538Z,5.65
2023-07-27T20:00:21.632Z,5.55
2023-07-27T20:02:49.799Z,5.55
2023-07-27T20:05:17.748Z,5.40
2023-07-27T20:07:45.675Z,5.85
2023-07-27T20:10:14.140Z,5.82
2023-07-27T20:12:43.380Z,5.90
2023-07-27T20:15:11.843Z,6.47
2023-07-27T20:17:39.756Z,5.78
2023-07-27T20:20:08.325Z,6.68
2023-07-27T20:22:36.287Z,7.55
2023-07-27T20:25:04.276Z,7.72
2023-07-27T20:27:32.082Z,7.90
2023-07-27T20:30:01.418Z,6.03
2023-07-27T20:32:29.743Z,6.47
2023-07-27T20:34:57.865Z,6.80
2023-07-27T20:37:25.775Z,6.78
2023-07-27T20:39:53.664Z,6.90
2023-07-27T20:42:21.598Z,6.90
2023-07-27T20:44:53.714Z,7.22
2023-07-27T20:47:24.260Z,7.10
2023-07-27T20:49:52.186Z,8.05
2023-07-27T20:52:20.054Z,7.82
2023-07-27T20:54:47.989Z,7.80
2023-07-27T20:57:15.832Z,8.32
2023-07-27T20:59:44.089Z,8.32
2023-07-27T21:02:11.994Z,9.05
2023-07-27T21:04:41.423Z,8.65
2023-07-27T21:07:09.326Z,7.78
2023-07-27T21:09:37.353Z,7.97
2023-07-27T21:12:05.485Z,8.07
2023-07-27T21:14:33.464Z,8.85
2023-07-27T21:17:01.334Z,9.77
2023-07-27T21:19:29.432Z,9.05
2023-07-27T21:21:58.705Z,9.00
2023-07-27T21:24:26.720Z,9.73
2023-07-27T21:26:54.652Z,9.38
2023-07-27T21:29:23.069Z,16.98
2023-07-27T21:31:51.065Z,11.30
2023-07-27T21:34:18.983Z,10.98
2023-07-27T21:36:46.849Z,10.40
2023-07-27T21:39:17.285Z,10.50
2023-07-27T21:41:45.256Z,10.45
2023-07-27T21:44:13.233Z,9.95
2023-07-27T21:46:41.188Z,9.27
2023-07-27T21:49:09.155Z,8.75
2023-07-27T21:51:37.150Z,8.70
2023-07-27T21:54:05.025Z,8.95
2023-07-27T21:56:34.620Z,8.68
2023-07-27T21:59:02.959Z,9.48
2023-07-27T22:01:30.898Z,8.23
2023-07-27T22:03:58.798Z,8.40
2023-07-27T22:06:26.772Z,8.57
2023-07-27T22:08:54.767Z,7.80
2023-07-27T22:11:22.656Z,8.07
2023-07-27T22:13:51.903Z,8.05
2023-07-27T22:16:19.827Z,7.47
2023-07-27T22:18:47.743Z,7.00
2023-07-27T22:21:15.603Z,7.88
2023-07-27T22:23:43.441Z,8.15
2023-07-27T22:26:11.442Z,8.95
2023-07-27T22:28:39.331Z,8.43
2023-07-27T22:31:08.894Z,9.45
2023-07-27T22:33:36.694Z,8.77
2023-07-27T22:36:04.550Z,8.27
2023-07-27T22:38:32.459Z,9.30
2023-07-27T22:41:00.741Z,8.90
2023-07-27T22:43:28.664Z,11.30
2023-07-27T22:45:58.849Z,8.88
2023-07-27T22:48:28.209Z,9.50
2023-07-27T22:50:56.088Z,9.52
2023-07-27T22:53:24.081Z,10.35
2023-07-27T22:55:52.400Z,10.00
2023-07-27T22:58:20.567Z,10.57
2023-07-27T23:00:48.466Z,10.88
2023-07-27T23:03:16.404Z,11.35
2023-07-27T23:05:45.673Z,12.05
2023-07-27T23:08:13.540Z,13.18
2023-07-27T23:10:41.369Z,12.70
2023-07-27T23:13:09.365Z,12.95
2023-07-27T23:15:37.184Z,13.02
2023-07-27T23:18:05.532Z,14.18
2023-07-27T23:20:33.478Z,14.35
2023-07-27T23:23:03.029Z,15.38
2023-07-27T23:25:30.928Z,15.10
2023-07-27T23:27:58.986Z,14.20
2023-07-27T23:30:26.814Z,15.32
2023-07-27T23:32:54.876Z,14.93
2023-07-27T23:35:22.808Z,15.02
2023-07-27T23:37:50.999Z,14.68
2023-07-27T23:40:20.347Z,14.02
2023-07-27T23:42:48.350Z,14.95
2023-07-27T23:45:16.166Z,11.88
2023-07-27T23:47:44.064Z,11.43
2023-07-27T23:50:11.934Z,11.02
2023-07-27T23:52:39.849Z,10.02
2023-07-27T23:55:07.920Z,9.57
2023-07-27T23:57:37.163Z,7.82
